• Join FlightAware (Why Join?)
  • Login
  • US Flag 
09:02AM EDT


 

Airport Tracker/Info


-or-


 

Live Flight TrackerFlight Track Log ✈ EJA646 ✈ 17-Apr-2013 ✈ KOKV - KHTS

Flight Track Log - Related Links

Times and Time Zones

All times are in EDT time to prevent confusion due to time zone crossing. See the EJA646 flight status page for this flight to view local times or setup timezone preferences in your user account.

Time Position Orientation Groundspeed Altitude Reporting Facility
EDT Latitude Longitude Course Direction KTS MPH feet Rate Location/Type
02:01PM 39.1167 -78.1167 288° West 173 199 2,600  Level Potomac TRACON
02:02PM 39.0833 -78.1000 159° South 213 245 6,300 3,180 Climbing Potomac TRACON
02:02PM 39.0244 -78.1192 194° South 257 296 8,500 2,880 Climbing Washington Center
02:03PM 38.9422 -78.1644 203° Southwest 292 336 11,600 2,820 Climbing Washington Center
02:04PM 38.8831 -78.1969 203° Southwest 310 357 14,200 2,640 Climbing Washington Center
02:05PM 38.8536 -78.3053 251° West 288 331 16,900 2,400 Climbing Washington Center
02:06PM 38.8217 -78.0533 288° West  Level FlightAware Approximate
02:06PM 38.8511 -78.4092 268° West 280 322 19,100  Level Washington Center
02:07PM 38.8503 -78.5397 270° West 322 371 21,100 1,440 Climbing Washington Center
02:08PM 38.8508 -78.6758 270° West 361 415 22,000 180 Climbing Washington Center
02:09PM 38.8494 -78.8144 269° West 377 434 21,500 -840 Descending Washington Center
02:10PM 38.8442 -78.9314 267° West 378 435 20,400 -780 Descending Washington Center
02:11PM 38.8419 -79.0806 269° West 378 435 20,000 -240 Descending Washington Center
02:12PM 38.8400 -79.2136 269° West 392 451 20,000  Level Washington Center
02:13PM 38.8217 -79.3433 260° West 387 445 20,000  Level Washington Center
02:14PM 38.8031 -79.4650 259° West 368 423 20,000  Level Washington Center
02:15PM 38.7864 -79.5892 260° West 348 400 20,000  Level Washington Center
02:16PM 38.7719 -79.7083 261° West 343 395 20,000  Level Washington Center
02:17PM 38.7556 -79.8247 260° West 343 395 20,000  Level Washington Center
02:18PM 38.7408 -79.9436 261° West 343 395 20,000  Level Washington Center
02:19PM 38.7264 -80.0492 260° West 343 395 20,000  Level Washington Center
02:20PM 38.7094 -80.1706 260° West 348 400 20,000  Level Washington Center
02:22PM 38.6883 -80.3225 260° West 341 392 20,000  Level Indianapolis Center
02:23PM 38.6728 -80.4411 261° West 338 389 20,000  Level Indianapolis Center
02:24PM 38.6567 -80.5597 260° West 339 390 20,000  Level Indianapolis Center
02:25PM 38.6411 -80.6761 260° West 334 384 20,000 -240 Level Indianapolis Center
02:26PM 38.6258 -80.7917 260° West 330 380 19,600 -900 Descending Indianapolis Center
02:27PM 38.6086 -80.9169 260° West 354 407 18,200 -1,320 Descending Indianapolis Center
02:28PM 38.5908 -81.0447 260° West 364 419 17,000 -1,500 Descending Indianapolis Center
02:29PM 38.5686 -81.1956 259° West 359 413 15,200 -1,620 Descending Indianapolis Center
02:30PM 38.5511 -81.3228 260° West 361 415 13,800 -1,440 Descending Indianapolis Center
02:31PM 38.5325 -81.4492 259° West 358 412 12,300 -1,380 Descending Indianapolis Center
02:32PM 38.5158 -81.5694 260° West 341 392 11,000 -660 Descending Indianapolis Center
02:33PM 38.5000 -81.6806 260° West 318 366 11,000  Level Indianapolis Center
02:34PM 38.4836 -81.7906 259° West 314 361 11,000  Level Indianapolis Center
02:35PM 38.4681 -81.8989 260° West 311 358 11,000 -120 Level Indianapolis Center
02:36PM 38.4522 -82.0069 259° West 308 354 10,800 -780 Descending Indianapolis Center
02:37PM 38.4361 -82.1114 259° West 301 346 9,500 -1,500 Descending Indianapolis Center
02:38PM 38.4214 -82.2117 259° West 290 334 7,800 -2,040 Descending Indianapolis Center
02:39PM 38.4067 -82.3086 259° West 280 322 5,400 -2,340 Descending Indianapolis Center
02:40PM 38.3903 -82.4208 259° West 271 312 3,000 -1,200 Descending Indianapolis Center
02:41PM 38.3967 -82.4889 277° West 212 244 3,000 -240 Level Indianapolis Center
02:42PM 38.4156 -82.5600 289° West 200 230 2,600 -360 Descending Indianapolis Center
02:43PM 38.4019 -82.6042 249° West 181 208 2,300 -660 Descending Indianapolis Center
02:44PM 38.3794 -82.5961 164° South 132 152 1,300 -1,020 Descending Indianapolis Center
02:46PM 38.3685 -82.5604 90° East  Level Estimated
02:53PM 38.3685 -82.5604 90° East  Level Estimated